Time;durP1;ratioP1;P1;durP2;ratioP2;P2;SDS_P1;SDS_P2;PMS_P1;PMS_P2;Temp;Humidity;BMP_temperature;BMP_pressure;BME280_temperature;BME280_humidity;BME280_pressure;Samples;Min_cycle;Max_cycle;Signal;HPM_P1;HPM_P2
2022/09/30 00:02:23;;;;;;;;;;;21.80;99.90;;;;;;5152257;27;19903;-74
2022/09/30 00:04:49;;;;;;;;;;;21.80;99.90;;;;;;5153722;27;20010;-74
2022/09/30 00:07:14;;;;;;;;;;;21.90;99.90;;;;;;5151948;27;20445;-73
2022/09/30 00:09:40;;;;;;;;;;;21.80;99.90;;;;;;5153772;27;19903;-74
2022/09/30 00:12:06;;;;;;;;;;;21.80;99.90;;;;;;5153401;27;19903;-74
2022/09/30 00:14:32;;;;;;;;;;;21.80;99.90;;;;;;5153379;27;20355;-73
2022/09/30 00:16:58;;;;;;;;;;;21.80;99.90;;;;;;5153793;27;19910;-74
2022/09/30 00:19:24;;;;;;;;;;;21.70;99.90;;;;;;5153389;27;19907;-73
2022/09/30 00:21:50;;;;;;;;;;;21.70;99.90;;;;;;5153419;27;19909;-74
2022/09/30 00:24:16;;;;;;;;;;;21.80;99.90;;;;;;5153132;27;19909;-74
2022/09/30 00:26:41;;;;;;;;;;;21.80;99.90;;;;;;5153436;27;20273;-74
2022/09/30 00:29:08;;;;;;;;;;;21.80;99.90;;;;;;5151627;27;20343;-74
2022/09/30 00:31:34;;;;;;;;;;;21.80;99.90;;;;;;5153331;27;19907;-73
2022/09/30 00:34:06;;;;;;;;;;;21.80;99.90;;;;;;5153494;27;19903;-74
2022/09/30 00:36:35;;;;;;;;;;;21.80;99.90;;;;;;5153226;27;19946;-74
2022/09/30 00:39:01;;;;;;;;;;;21.70;99.90;;;;;;5153139;27;19903;-74
2022/09/30 00:41:27;;;;;;;;;;;21.70;99.90;;;;;;5153200;27;19907;-74
2022/09/30 00:43:53;;;;;;;;;;;21.70;99.90;;;;;;5152961;27;20264;-75
2022/09/30 00:46:22;;;;;;;;;;;21.70;99.90;;;;;;5153064;27;19997;-75
2022/09/30 00:48:52;;;;;;;;;;;21.70;99.90;;;;;;5153374;27;19903;-74
2022/09/30 00:51:23;;;;;;;;;;;21.70;99.90;;;;;;5153099;27;19986;-75
2022/09/30 00:53:56;;;;;;;;;;;21.70;99.90;;;;;;5153182;27;19964;-72
2022/09/30 00:56:24;;;;;;;;;;;21.70;99.90;;;;;;5151345;27;19979;-73
2022/09/30 00:58:55;;;;;;;;;;;21.70;99.90;;;;;;5153012;27;20006;-74
2022/09/30 01:01:21;;;;;;;;;;;21.70;99.90;;;;;;5152772;27;19910;-73
2022/09/30 01:03:50;;;;;;;;;;;21.70;99.90;;;;;;5152746;27;20308;-72
2022/09/30 01:06:16;;;;;;;;;;;21.70;99.90;;;;;;5152715;27;19919;-72
2022/09/30 01:08:43;;;;;;;;;;;21.70;99.90;;;;;;5152669;27;19999;-73
2022/09/30 01:11:09;;;;;;;;;;;21.70;99.90;;;;;;5153075;27;19914;-73
2022/09/30 01:13:36;;;;;;;;;;;21.80;99.90;;;;;;5151070;27;19914;-74
2022/09/30 01:16:17;;;;;;;;;;;21.80;99.90;;;;;;5152699;27;19903;-73
2022/09/30 01:18:42;;;;;;;;;;;21.80;99.90;;;;;;5152967;27;19903;-73
2022/09/30 01:21:17;;;;;;;;;;;21.80;99.90;;;;;;5152506;27;19909;-74
2022/09/30 01:26:49;;;;;;;;;;;21.80;99.90;;;;;;5156723;27;19918;-73
2022/09/30 01:29:18;;;;;;;;;;;21.80;99.90;;;;;;5156610;27;20367;-73
2022/09/30 01:31:48;;;;;;;;;;;21.80;99.90;;;;;;5156476;27;19958;-73
2022/09/30 01:34:29;;;;;;;;;;;21.80;99.90;;;;;;5155037;27;19961;-74
2022/09/30 01:36:55;;;;;;;;;;;21.80;99.90;;;;;;5154986;27;19911;-73
2022/09/30 01:39:33;;;;;;;;;;;21.80;99.90;;;;;;5156685;27;19966;-75
2022/09/30 01:41:59;;;;;;;;;;;21.70;99.90;;;;;;5156486;27;20311;-72
2022/09/30 01:44:34;;;;;;;;;;;21.70;99.90;;;;;;5156570;27;19907;-73
2022/09/30 01:47:04;;;;;;;;;;;21.80;99.90;;;;;;5156238;27;19915;-73
2022/09/30 01:49:39;;;;;;;;;;;21.70;99.90;;;;;;5156222;27;19903;-73
2022/09/30 01:52:09;;;;;;;;;;;21.70;99.90;;;;;;5156342;27;20325;-74
2022/09/30 01:54:40;;;;;;;;;;;21.70;99.90;;;;;;5155971;27;19903;-73
2022/09/30 01:57:13;;;;;;;;;;;21.70;99.90;;;;;;5156378;27;19903;-73
2022/09/30 01:59:46;;;;;;;;;;;21.70;99.90;;;;;;5155948;27;19956;-73
2022/09/30 02:02:32;;;;;;;;;;;21.70;99.90;;;;;;5156497;27;19911;-73
2022/09/30 02:05:01;;;;;;;;;;;21.70;99.90;;;;;;5155735;27;19910;-73
2022/09/30 02:07:29;;;;;;;;;;;21.70;99.90;;;;;;5154394;27;19911;-73
2022/09/30 02:09:59;;;;;;;;;;;21.70;99.90;;;;;;5155749;27;20307;-74
2022/09/30 02:12:27;;;;;;;;;;;21.70;99.90;;;;;;5155937;27;19907;-73
2022/09/30 02:15:07;;;;;;;;;;;21.70;99.90;;;;;;5153988;27;19921;-73
2022/09/30 02:17:39;;;;;;;;;;;21.70;99.90;;;;;;5155854;27;19910;-73
2022/09/30 02:20:07;;;;;;;;;;;21.70;99.90;;;;;;5155748;27;19907;-73
2022/09/30 02:22:43;;;;;;;;;;;21.70;99.90;;;;;;5154064;27;19909;-73
2022/09/30 02:25:12;;;;;;;;;;;21.70;99.90;;;;;;5155694;27;19918;-72
2022/09/30 02:27:41;;;;;;;;;;;21.70;99.90;;;;;;5153920;27;19903;-74
2022/09/30 02:30:08;;;;;;;;;;;21.70;99.90;;;;;;5155388;27;19903;-73
2022/09/30 02:32:37;;;;;;;;;;;21.70;99.90;;;;;;5155132;27;19903;-73
2022/09/30 02:35:29;;;;;;;;;;;21.70;99.90;;;;;;5155574;27;19910;-73
2022/09/30 02:37:59;;;;;;;;;;;21.70;99.90;;;;;;5152947;27;19938;-73
2022/09/30 02:40:30;;;;;;;;;;;21.70;99.90;;;;;;5155249;27;19975;-73
2022/09/30 02:42:56;;;;;;;;;;;21.70;99.90;;;;;;5153579;27;20426;-74
2022/09/30 02:45:23;;;;;;;;;;;21.70;99.90;;;;;;5154854;27;19913;-73
2022/09/30 02:47:55;;;;;;;;;;;21.70;99.90;;;;;;5154977;27;19911;-73
2022/09/30 02:50:23;;;;;;;;;;;21.70;99.90;;;;;;5154893;27;19910;-74
2022/09/30 02:52:57;;;;;;;;;;;21.60;99.90;;;;;;5155296;27;19950;-73
2022/09/30 02:55:30;;;;;;;;;;;21.60;99.90;;;;;;5155107;27;19955;-74
2022/09/30 02:58:28;;;;;;;;;;;21.70;99.90;;;;;;5155075;27;19903;-73
2022/09/30 03:00:53;;;;;;;;;;;21.60;99.90;;;;;;5155151;27;19947;-74
2022/09/30 03:03:26;;;;;;;;;;;21.60;99.90;;;;;;5154811;27;19903;-74
2022/09/30 03:05:52;;;;;;;;;;;21.60;99.90;;;;;;5154944;27;19966;-73
2022/09/30 03:08:17;;;;;;;;;;;21.60;99.90;;;;;;5154887;27;19926;-73
2022/09/30 03:10:45;;;;;;;;;;;21.60;99.90;;;;;;5155216;27;20203;-72
2022/09/30 03:13:26;;;;;;;;;;;21.60;99.90;;;;;;5154299;27;20285;-74
2022/09/30 03:16:27;;;;;;;;;;;21.60;99.90;;;;;;5154818;27;19907;-74
2022/09/30 03:18:59;;;;;;;;;;;21.60;99.90;;;;;;5110839;28;19904;-73
2022/09/30 03:21:27;;;;;;;;;;;21.70;99.90;;;;;;5111006;28;19908;-73
2022/09/30 03:23:56;;;;;;;;;;;21.70;99.90;;;;;;5111826;28;19904;-74
2022/09/30 03:26:51;;;;;;;;;;;21.70;99.90;;;;;;5094901;28;19912;-73
2022/09/30 03:29:36;;;;;;;;;;;21.60;99.90;;;;;;5051388;28;20267;-74
2022/09/30 03:32:18;;;;;;;;;;;21.60;99.90;;;;;;5051506;28;19938;-73
2022/09/30 03:35:09;;;;;;;;;;;21.50;99.90;;;;;;5050855;28;19948;-74
2022/09/30 03:37:37;;;;;;;;;;;21.40;99.90;;;;;;5050907;28;20273;-73
2022/09/30 03:40:23;;;;;;;;;;;21.40;99.90;;;;;;5051371;28;19904;-73
2022/09/30 03:42:54;;;;;;;;;;;21.30;99.90;;;;;;5050647;28;19911;-74
2022/09/30 03:45:30;;;;;;;;;;;21.30;99.90;;;;;;5050340;28;19915;-73
2022/09/30 03:47:58;;;;;;;;;;;21.30;99.90;;;;;;5050732;28;20316;-73
2022/09/30 03:50:24;;;;;;;;;;;21.30;99.90;;;;;;5051176;28;20363;-73
2022/09/30 03:52:51;;;;;;;;;;;21.30;99.90;;;;;;5070683;28;20412;-73
2022/09/30 03:55:18;;;;;;;;;;;21.20;99.90;;;;;;5091510;28;19904;-73
2022/09/30 03:57:44;;;;;;;;;;;21.20;99.90;;;;;;5073784;28;19908;-73
2022/09/30 04:00:10;;;;;;;;;;;21.20;99.90;;;;;;5091261;28;20294;-75
2022/09/30 04:02:36;;;;;;;;;;;21.20;99.90;;;;;;5090587;28;19908;-73
2022/09/30 04:05:03;;;;;;;;;;;21.10;99.90;;;;;;5105926;27;19966;-73
2022/09/30 04:07:28;;;;;;;;;;;21.10;99.90;;;;;;5154717;27;19907;-74
2022/09/30 04:09:55;;;;;;;;;;;21.10;99.90;;;;;;5154298;27;20001;-73
2022/09/30 04:12:21;;;;;;;;;;;21.10;99.90;;;;;;5154338;27;19910;-74
2022/09/30 04:14:46;;;;;;;;;;;21.10;99.90;;;;;;5154056;27;19914;-73
2022/09/30 04:17:12;;;;;;;;;;;21.10;99.90;;;;;;5152965;27;19903;-73
2022/09/30 04:19:39;;;;;;;;;;;21.10;99.90;;;;;;5155331;27;19903;-73
2022/09/30 04:22:05;;;;;;;;;;;21.10;99.90;;;;;;5154841;27;19913;-73
2022/09/30 04:24:31;;;;;;;;;;;21.10;99.90;;;;;;5153602;27;19993;-74
2022/09/30 04:26:57;;;;;;;;;;;21.00;99.90;;;;;;5154918;27;20005;-74
2022/09/30 04:29:23;;;;;;;;;;;21.10;99.90;;;;;;5153503;27;20259;-73
2022/09/30 04:32:04;;;;;;;;;;;21.10;99.90;;;;;;5153449;27;20430;-74
2022/09/30 04:34:30;;;;;;;;;;;21.10;99.90;;;;;;5155237;27;19947;-73
2022/09/30 04:36:56;;;;;;;;;;;21.10;99.90;;;;;;5153283;27;20006;-74
2022/09/30 04:39:21;;;;;;;;;;;21.10;99.90;;;;;;5154706;27;19903;-73
2022/09/30 04:41:47;;;;;;;;;;;21.10;99.90;;;;;;5155244;27;19910;-73
2022/09/30 04:44:13;;;;;;;;;;;21.10;99.90;;;;;;5154613;27;20327;-73
2022/09/30 04:46:39;;;;;;;;;;;21.10;99.90;;;;;;5152645;27;20118;-73
2022/09/30 04:49:05;;;;;;;;;;;21.10;99.90;;;;;;5153735;27;19907;-73
2022/09/30 04:51:31;;;;;;;;;;;21.00;99.90;;;;;;5152703;27;19902;-73
2022/09/30 04:53:57;;;;;;;;;;;21.10;99.90;;;;;;5154285;27;19903;-74
2022/09/30 04:56:25;;;;;;;;;;;21.20;99.90;;;;;;5154383;27;19907;-73
2022/09/30 04:58:51;;;;;;;;;;;21.30;99.90;;;;;;5159160;27;20335;-73
2022/09/30 05:01:17;;;;;;;;;;;21.30;99.90;;;;;;5159638;27;19910;-74
2022/09/30 05:03:43;;;;;;;;;;;21.40;99.90;;;;;;5159033;27;20354;-73
2022/09/30 05:06:09;;;;;;;;;;;21.40;99.90;;;;;;5157349;27;19911;-73
2022/09/30 05:08:35;;;;;;;;;;;21.30;99.90;;;;;;5159101;27;19907;-74
2022/09/30 05:11:02;;;;;;;;;;;21.30;99.90;;;;;;5158532;27;20360;-74
2022/09/30 05:13:29;;;;;;;;;;;21.40;99.90;;;;;;5157937;27;19983;-73
2022/09/30 05:15:55;;;;;;;;;;;21.40;99.90;;;;;;5158043;27;19911;-73
2022/09/30 05:18:21;;;;;;;;;;;21.40;99.90;;;;;;5158527;27;19910;-74
2022/09/30 05:20:50;;;;;;;;;;;21.50;99.90;;;;;;5158920;27;20002;-73
2022/09/30 05:23:17;;;;;;;;;;;21.50;99.90;;;;;;5156899;27;19914;-74
2022/09/30 05:25:43;;;;;;;;;;;21.50;99.90;;;;;;5157485;27;19907;-74
2022/09/30 05:28:09;;;;;;;;;;;21.40;99.90;;;;;;5157773;27;19914;-73
2022/09/30 05:30:35;;;;;;;;;;;21.50;99.90;;;;;;5158097;27;19906;-74
2022/09/30 05:33:00;;;;;;;;;;;21.40;99.90;;;;;;5158248;27;19955;-73
2022/09/30 05:35:27;;;;;;;;;;;21.50;99.90;;;;;;5157273;27;19903;-74
2022/09/30 05:37:52;;;;;;;;;;;21.50;99.90;;;;;;5155939;27;19943;-73
2022/09/30 05:40:18;;;;;;;;;;;21.90;99.90;;;;;;5157293;27;20373;-73
2022/09/30 05:42:45;;;;;;;;;;;22.50;99.90;;;;;;5157418;27;20085;-74
2022/09/30 05:45:11;;;;;;;;;;;23.10;99.90;;;;;;5156818;27;19959;-74
2022/09/30 05:47:38;;;;;;;;;;;23.50;99.90;;;;;;5156647;27;19915;-74
2022/09/30 05:50:04;;;;;;;;;;;23.70;99.90;;;;;;5156819;27;19955;-74
2022/09/30 05:52:30;;;;;;;;;;;24.00;99.90;;;;;;5157001;27;20247;-74
2022/09/30 05:54:59;;;;;;;;;;;24.20;99.90;;;;;;5156916;27;19903;-73
2022/09/30 05:57:28;;;;;;;;;;;24.50;99.90;;;;;;5156120;27;19907;-73
2022/09/30 05:59:54;;;;;;;;;;;24.80;99.90;;;;;;5156328;27;19903;-74
2022/09/30 06:02:20;;;;;;;;;;;25.00;99.90;;;;;;5154471;27;19927;-75
2022/09/30 06:04:46;;;;;;;;;;;25.30;99.90;;;;;;5156699;27;19903;-74
2022/09/30 06:07:12;;;;;;;;;;;25.30;99.90;;;;;;5156278;27;19911;-74
2022/09/30 06:09:38;;;;;;;;;;;25.50;99.90;;;;;;5156817;27;19903;-76
2022/09/30 06:12:05;;;;;;;;;;;25.70;99.90;;;;;;5156485;27;20378;-74
2022/09/30 06:14:31;;;;;;;;;;;26.10;99.90;;;;;;5155820;27;20014;-74
2022/09/30 06:16:59;;;;;;;;;;;26.20;99.90;;;;;;5156283;27;20011;-74
2022/09/30 06:19:29;;;;;;;;;;;26.50;99.90;;;;;;5156511;27;19989;-74
2022/09/30 06:21:55;;;;;;;;;;;26.60;99.90;;;;;;5154815;27;19941;-74
2022/09/30 06:24:21;;;;;;;;;;;26.80;99.90;;;;;;5156471;27;20242;-74
2022/09/30 06:26:46;;;;;;;;;;;27.00;99.90;;;;;;5156434;27;20329;-75
2022/09/30 06:29:13;;;;;;;;;;;27.10;99.90;;;;;;5155716;27;19903;-75
2022/09/30 06:31:39;;;;;;;;;;;27.10;99.90;;;;;;5156289;27;19903;-75
2022/09/30 06:34:05;;;;;;;;;;;27.50;99.90;;;;;;5155701;27;20481;-75
2022/09/30 06:36:32;;;;;;;;;;;27.20;99.90;;;;;;5154844;27;19947;-74
2022/09/30 06:39:00;;;;;;;;;;;27.10;99.90;;;;;;5156110;27;19955;-74
2022/09/30 06:41:27;;;;;;;;;;;26.80;99.90;;;;;;5156331;27;19903;-75
2022/09/30 06:43:54;;;;;;;;;;;26.60;99.90;;;;;;5154956;27;19993;-74
2022/09/30 06:46:22;;;;;;;;;;;26.40;99.90;;;;;;5156182;27;19911;-74
2022/09/30 06:48:51;;;;;;;;;;;26.20;99.90;;;;;;5156404;27;19963;-74
2022/09/30 06:51:17;;;;;;;;;;;26.80;99.90;;;;;;5156275;27;20376;-74
2022/09/30 06:53:43;;;;;;;;;;;26.50;99.90;;;;;;5156048;27;19956;-75
2022/09/30 06:56:09;;;;;;;;;;;26.70;99.90;;;;;;5156372;27;20010;-74
2022/09/30 06:58:35;;;;;;;;;;;26.80;99.90;;;;;;5156294;27;20326;-74
2022/09/30 07:01:04;;;;;;;;;;;26.80;99.90;;;;;;5156285;27;19906;-74
2022/09/30 07:03:31;;;;;;;;;;;26.70;99.90;;;;;;5156353;27;19947;-75
2022/09/30 07:05:58;;;;;;;;;;;26.70;99.90;;;;;;5156049;27;20007;-74
2022/09/30 07:08:24;;;;;;;;;;;26.60;99.90;;;;;;5154603;27;19940;-74
2022/09/30 07:10:51;;;;;;;;;;;26.40;99.90;;;;;;5156133;27;19910;-75
2022/09/30 07:13:17;;;;;;;;;;;26.60;99.90;;;;;;5154097;27;20374;-74
2022/09/30 07:15:43;;;;;;;;;;;26.60;99.90;;;;;;5155848;27;20355;-73
2022/09/30 07:18:09;;;;;;;;;;;26.90;99.90;;;;;;5155400;27;19955;-74
2022/09/30 07:20:35;;;;;;;;;;;26.60;99.90;;;;;;5155036;27;20095;-73
2022/09/30 07:23:00;;;;;;;;;;;26.10;99.90;;;;;;5155970;27;19946;-75
2022/09/30 07:25:26;;;;;;;;;;;25.70;99.90;;;;;;5156452;27;19966;-75
2022/09/30 07:27:54;;;;;;;;;;;25.60;99.90;;;;;;5155861;27;20451;-73
2022/09/30 07:30:20;;;;;;;;;;;25.20;99.90;;;;;;5154402;27;19983;-74
2022/09/30 07:32:46;;;;;;;;;;;25.00;99.90;;;;;;5155651;27;19909;-74
2022/09/30 07:35:27;;;;;;;;;;;25.00;99.90;;;;;;5155821;27;19907;-75
2022/09/30 07:37:53;;;;;;;;;;;24.90;99.90;;;;;;5155696;27;20271;-74
2022/09/30 07:40:19;;;;;;;;;;;24.90;99.90;;;;;;5155643;27;19910;-76
2022/09/30 07:42:45;;;;;;;;;;;24.80;99.90;;;;;;5155847;27;19910;-75
2022/09/30 07:45:14;;;;;;;;;;;24.90;99.90;;;;;;5155471;27;19946;-75
2022/09/30 07:47:40;;;;;;;;;;;24.90;99.90;;;;;;5155047;27;19934;-75
2022/09/30 07:50:09;;;;;;;;;;;24.80;99.90;;;;;;5154497;27;20330;-75
2022/09/30 07:55:37;;;;;;;;;;;25.20;99.90;;;;;;5154496;27;20273;-75
2022/09/30 07:58:04;;;;;;;;;;;25.30;99.90;;;;;;5153875;27;19903;-75
2022/09/30 08:00:30;;;;;;;;;;;25.30;99.90;;;;;;5154583;27;19910;-75
2022/09/30 08:02:56;;;;;;;;;;;25.30;99.90;;;;;;5154317;27;19903;-74
2022/09/30 08:05:22;;;;;;;;;;;25.40;99.90;;;;;;5154114;27;19997;-74
2022/09/30 08:07:48;;;;;;;;;;;25.60;99.90;;;;;;5154248;27;19997;-74
2022/09/30 08:10:13;;;;;;;;;;;25.60;99.90;;;;;;5154143;27;19903;-74
2022/09/30 08:12:39;;;;;;;;;;;25.90;99.90;;;;;;5154296;27;20410;-74
2022/09/30 08:15:08;;;;;;;;;;;26.10;99.90;;;;;;5153959;27;19997;-73
2022/09/30 08:17:34;;;;;;;;;;;25.70;99.90;;;;;;5154650;27;19903;-74
2022/09/30 08:20:00;;;;;;;;;;;25.60;99.90;;;;;;5153425;27;19910;-74
2022/09/30 08:22:27;;;;;;;;;;;25.70;99.90;;;;;;5154818;27;19919;-75
2022/09/30 08:24:53;;;;;;;;;;;25.90;99.90;;;;;;5154643;27;19903;-74
2022/09/30 08:27:19;;;;;;;;;;;25.80;99.90;;;;;;5154660;27;19941;-75
2022/09/30 08:29:45;;;;;;;;;;;26.30;99.90;;;;;;5153039;27;19903;-74
2022/09/30 08:32:11;;;;;;;;;;;26.20;99.90;;;;;;5153283;27;19910;-76
2022/09/30 08:34:36;;;;;;;;;;;26.50;99.90;;;;;;5153505;27;19964;-74
2022/09/30 08:37:03;;;;;;;;;;;27.00;99.90;;;;;;5154723;27;19903;-75
2022/09/30 08:39:28;;;;;;;;;;;27.30;99.90;;;;;;5154605;27;19903;-74
2022/09/30 08:42:12;;;;;;;;;;;26.90;99.90;;;;;;5154753;27;19967;-75
2022/09/30 08:44:42;;;;;;;;;;;26.50;99.90;;;;;;5154907;27;20277;-75
2022/09/30 08:47:07;;;;;;;;;;;26.40;99.90;;;;;;5153054;27;19934;-75
2022/09/30 08:49:36;;;;;;;;;;;26.40;99.90;;;;;;5154546;27;20279;-75
2022/09/30 08:52:04;;;;;;;;;;;26.20;99.90;;;;;;5154772;27;20335;-75
2022/09/30 08:54:32;;;;;;;;;;;26.10;99.90;;;;;;5154256;27;19903;-74
2022/09/30 08:56:59;;;;;;;;;;;25.50;99.90;;;;;;5154210;27;19915;-76
2022/09/30 08:59:31;;;;;;;;;;;25.50;99.90;;;;;;5154299;27;19910;-75
2022/09/30 09:02:00;;;;;;;;;;;25.60;99.90;;;;;;5154554;27;19903;-76
2022/09/30 09:04:25;;;;;;;;;;;25.70;99.90;;;;;;5154330;27;19945;-74
2022/09/30 09:07:04;;;;;;;;;;;26.00;99.90;;;;;;5153461;27;20300;-74
2022/09/30 09:09:35;;;;;;;;;;;26.20;99.90;;;;;;5154511;27;19903;-75
2022/09/30 09:12:21;;;;;;;;;;;26.20;99.90;;;;;;5154243;27;19903;-75
2022/09/30 09:14:53;;;;;;;;;;;26.30;99.90;;;;;;5154202;27;19940;-74
2022/09/30 09:17:31;;;;;;;;;;;26.30;99.90;;;;;;5154755;27;19930;-75
2022/09/30 09:20:07;;;;;;;;;;;25.90;99.90;;;;;;5154255;27;20039;-74
2022/09/30 09:22:34;;;;;;;;;;;25.60;99.90;;;;;;5154566;27;19923;-75
2022/09/30 09:25:01;;;;;;;;;;;25.50;99.90;;;;;;5152254;27;20001;-75
2022/09/30 09:27:40;;;;;;;;;;;25.50;99.90;;;;;;5153692;27;20043;-74
2022/09/30 09:30:20;;;;;;;;;;;25.40;99.90;;;;;;5151888;27;19907;-74
2022/09/30 09:32:49;;;;;;;;;;;25.30;99.90;;;;;;5153677;27;19944;-74
2022/09/30 09:35:16;;;;;;;;;;;25.30;99.90;;;;;;5153778;27;19946;-74
2022/09/30 09:40:35;;;;;;;;;;;25.30;99.90;;;;;;5153605;27;19945;-75
2022/09/30 09:43:25;;;;;;;;;;;25.30;99.90;;;;;;5155196;27;19903;-76
2022/09/30 09:45:55;;;;;;;;;;;25.30;99.90;;;;;;5157593;27;19935;-75
2022/09/30 09:48:21;;;;;;;;;;;25.40;99.90;;;;;;5158004;27;19993;-74
2022/09/30 09:50:56;;;;;;;;;;;25.30;99.90;;;;;;5157710;27;19987;-75
2022/09/30 09:53:25;;;;;;;;;;;25.50;99.90;;;;;;5157011;27;20428;-75
2022/09/30 09:55:54;;;;;;;;;;;25.50;99.90;;;;;;5156961;27;19911;-75
2022/09/30 09:58:20;;;;;;;;;;;25.60;99.90;;;;;;5157109;27;20338;-75
2022/09/30 10:03:22;;;;;;;;;;;26.10;99.90;;;;;;5156933;27;19958;-75
2022/09/30 10:06:00;;;;;;;;;;;26.20;99.90;;;;;;5157012;27;20016;-75
2022/09/30 10:08:27;;;;;;;;;;;26.40;99.90;;;;;;5156727;27;19929;-75
2022/09/30 10:11:13;;;;;;;;;;;26.40;99.90;;;;;;5155731;27;19903;-74
2022/09/30 10:13:43;;;;;;;;;;;26.50;99.90;;;;;;5156461;27;19910;-74
2022/09/30 10:16:25;;;;;;;;;;;26.40;99.90;;;;;;5155240;27;19911;-75
2022/09/30 10:18:51;;;;;;;;;;;26.20;99.90;;;;;;5155039;27;19903;-75
2022/09/30 10:21:21;;;;;;;;;;;26.20;99.90;;;;;;5154542;27;20350;-74
2022/09/30 10:23:47;;;;;;;;;;;26.40;99.90;;;;;;5156511;27;19907;-76
2022/09/30 10:26:13;;;;;;;;;;;26.70;99.90;;;;;;5156282;27;20002;-75
2022/09/30 10:28:46;;;;;;;;;;;26.70;99.90;;;;;;5156279;27;19982;-76
2022/09/30 10:31:33;;;;;;;;;;;26.70;99.90;;;;;;5156407;27;20354;-74
2022/09/30 10:34:11;;;;;;;;;;;26.50;99.90;;;;;;5156052;27;19903;-74
2022/09/30 10:36:39;;;;;;;;;;;26.50;99.90;;;;;;5156456;27;19903;-74
2022/09/30 10:39:08;;;;;;;;;;;26.60;99.90;;;;;;5156394;27;19979;-75
2022/09/30 10:41:35;;;;;;;;;;;26.60;99.90;;;;;;5156731;27;19918;-75
2022/09/30 10:44:02;;;;;;;;;;;26.50;99.90;;;;;;5156605;27;20270;-74
2022/09/30 10:46:37;;;;;;;;;;;26.50;99.90;;;;;;5156888;27;20355;-75
2022/09/30 10:49:26;;;;;;;;;;;26.60;99.90;;;;;;5156276;27;20288;-74
2022/09/30 10:51:52;;;;;;;;;;;26.80;99.90;;;;;;5150261;27;19903;-74
2022/09/30 10:54:36;;;;;;;;;;;27.00;99.90;;;;;;5154357;27;19953;-74
2022/09/30 10:57:02;;;;;;;;;;;27.20;99.90;;;;;;5156340;27;19911;-74
2022/09/30 10:59:28;;;;;;;;;;;27.20;99.90;;;;;;5155927;27;19947;-74
2022/09/30 11:02:25;;;;;;;;;;;27.10;99.90;;;;;;5153991;27;20270;-75
2022/09/30 11:04:59;;;;;;;;;;;26.90;99.90;;;;;;5156105;27;19903;-74
2022/09/30 11:07:31;;;;;;;;;;;26.80;99.90;;;;;;5156314;27;19911;-75
2022/09/30 11:10:02;;;;;;;;;;;26.80;99.90;;;;;;5156340;27;19907;-74
2022/09/30 11:12:33;;;;;;;;;;;26.90;99.90;;;;;;5155551;27;20342;-74
2022/09/30 11:14:59;;;;;;;;;;;26.70;99.90;;;;;;5154950;27;19915;-75
2022/09/30 11:17:42;;;;;;;;;;;26.50;99.90;;;;;;5155242;27;19994;-74
2022/09/30 11:20:15;;;;;;;;;;;26.40;99.90;;;;;;5156485;27;19903;-75
2022/09/30 11:22:56;;;;;;;;;;;26.30;99.90;;;;;;5155675;27;19911;-74
2022/09/30 11:25:30;;;;;;;;;;;26.10;99.90;;;;;;5155490;27;20323;-74
2022/09/30 11:28:10;;;;;;;;;;;25.80;99.90;;;;;;5155770;27;19907;-73
2022/09/30 11:30:46;;;;;;;;;;;25.90;99.90;;;;;;5155363;27;19907;-73
2022/09/30 11:33:33;;;;;;;;;;;26.10;99.90;;;;;;5155507;27;19907;-74
2022/09/30 11:36:04;;;;;;;;;;;26.20;99.90;;;;;;5156000;27;19903;-74
2022/09/30 11:38:51;;;;;;;;;;;26.30;99.90;;;;;;5155772;27;19944;-75
2022/09/30 11:41:29;;;;;;;;;;;26.50;99.90;;;;;;5155994;27;19903;-74
2022/09/30 11:44:04;;;;;;;;;;;26.70;99.90;;;;;;5155477;27;20283;-74
2022/09/30 11:46:48;;;;;;;;;;;26.50;99.90;;;;;;5155476;27;19958;-74
2022/09/30 11:49:32;;;;;;;;;;;26.40;99.90;;;;;;5154994;27;20298;-74
2022/09/30 11:52:06;;;;;;;;;;;26.40;99.90;;;;;;5154983;27;20001;-75
2022/09/30 11:54:47;;;;;;;;;;;26.30;99.90;;;;;;5155687;27;19903;-74
2022/09/30 11:57:18;;;;;;;;;;;26.20;99.90;;;;;;5155723;27;20334;-74
2022/09/30 11:59:47;;;;;;;;;;;26.20;99.90;;;;;;5153477;27;19921;-73
2022/09/30 12:02:26;;;;;;;;;;;25.90;99.90;;;;;;5154379;27;19910;-74
2022/09/30 12:04:55;;;;;;;;;;;26.10;99.90;;;;;;5155094;27;19903;-74
2022/09/30 12:07:28;;;;;;;;;;;26.20;99.90;;;;;;5152862;27;19911;-75
2022/09/30 12:10:03;;;;;;;;;;;26.30;99.90;;;;;;5154584;27;19972;-74
2022/09/30 12:12:31;;;;;;;;;;;26.40;99.90;;;;;;5154797;27;19903;-75
2022/09/30 12:15:06;;;;;;;;;;;26.40;99.90;;;;;;5154428;27;19919;-74
2022/09/30 12:17:42;;;;;;;;;;;26.40;99.90;;;;;;5154698;27;19950;-75
2022/09/30 12:20:28;;;;;;;;;;;26.10;99.90;;;;;;5154791;27;20378;-73
2022/09/30 12:23:14;;;;;;;;;;;26.00;99.90;;;;;;5154484;27;19997;-74
2022/09/30 12:25:55;;;;;;;;;;;26.10;99.90;;;;;;5154379;27;19914;-74
2022/09/30 12:31:22;;;;;;;;;;;25.90;99.90;;;;;;5155525;27;20040;-73
2022/09/30 12:34:07;;;;;;;;;;;26.10;99.90;;;;;;5153495;27;19926;-74
2022/09/30 12:36:38;;;;;;;;;;;26.30;99.90;;;;;;5155092;27;19946;-75
2022/09/30 12:39:26;;;;;;;;;;;26.40;99.90;;;;;;5154717;27;20394;-74
2022/09/30 12:41:55;;;;;;;;;;;26.30;99.90;;;;;;5155683;27;20258;-74
2022/09/30 12:44:36;;;;;;;;;;;26.30;99.90;;;;;;5154864;27;19907;-74
2022/09/30 12:47:25;;;;;;;;;;;26.40;99.90;;;;;;5154915;27;19965;-74
2022/09/30 12:49:53;;;;;;;;;;;26.40;99.90;;;;;;5154835;27;19909;-74
2022/09/30 12:52:20;;;;;;;;;;;26.50;99.90;;;;;;5154190;27;19949;-74
2022/09/30 12:54:57;;;;;;;;;;;26.70;99.90;;;;;;5154902;27;19973;-75
2022/09/30 12:57:25;;;;;;;;;;;26.80;99.90;;;;;;5154458;27;19914;-74
2022/09/30 12:59:53;;;;;;;;;;;26.80;99.90;;;;;;5154587;27;19903;-74
2022/09/30 13:02:39;;;;;;;;;;;26.70;99.90;;;;;;5154422;27;19903;-74
2022/09/30 13:05:23;;;;;;;;;;;26.60;99.90;;;;;;5154708;27;19963;-74
2022/09/30 13:08:04;;;;;;;;;;;26.50;99.90;;;;;;5154731;27;20387;-74
2022/09/30 13:10:33;;;;;;;;;;;26.50;99.90;;;;;;5153165;27;19910;-73
2022/09/30 13:13:17;;;;;;;;;;;26.50;99.90;;;;;;5154352;27;19903;-73
2022/09/30 13:15:44;;;;;;;;;;;26.50;99.90;;;;;;5153118;27;19911;-75
2022/09/30 13:18:19;;;;;;;;;;;26.50;99.90;;;;;;5156071;27;19903;-74
2022/09/30 13:21:03;;;;;;;;;;;26.60;99.90;;;;;;5159377;27;19918;-75
2022/09/30 13:23:47;;;;;;;;;;;26.70;99.90;;;;;;5159035;27;20269;-74
2022/09/30 13:26:25;;;;;;;;;;;26.60;99.90;;;;;;5158742;27;19998;-74
2022/09/30 13:28:53;;;;;;;;;;;26.50;99.90;;;;;;5158665;27;19903;-74
2022/09/30 13:31:20;;;;;;;;;;;26.40;99.90;;;;;;5158846;27;19948;-75
2022/09/30 13:34:01;;;;;;;;;;;26.30;99.90;;;;;;5158872;27;19909;-74
2022/09/30 13:36:38;;;;;;;;;;;26.30;99.90;;;;;;5157413;27;19948;-73
2022/09/30 13:39:06;;;;;;;;;;;26.30;99.90;;;;;;5158990;27;19903;-74
2022/09/30 13:41:35;;;;;;;;;;;26.20;99.90;;;;;;5157371;27;19903;-74
2022/09/30 13:44:20;;;;;;;;;;;26.20;99.90;;;;;;5158913;27;19971;-75
2022/09/30 13:46:51;;;;;;;;;;;26.20;99.90;;;;;;5158698;27;19910;-74
2022/09/30 13:49:22;;;;;;;;;;;26.20;99.90;;;;;;5158322;27;19959;-74
2022/09/30 13:51:48;;;;;;;;;;;26.20;99.90;;;;;;5157742;27;19931;-75
2022/09/30 13:54:25;;;;;;;;;;;26.20;99.90;;;;;;5157439;27;19928;-74
2022/09/30 13:56:52;;;;;;;;;;;26.20;99.90;;;;;;5157687;27;19932;-74
2022/09/30 13:59:17;;;;;;;;;;;26.30;99.90;;;;;;5157816;27;20410;-74
2022/09/30 14:01:55;;;;;;;;;;;26.30;99.90;;;;;;5157966;27;19945;-74
2022/09/30 14:04:24;;;;;;;;;;;26.40;99.90;;;;;;5157384;27;19907;-73
2022/09/30 14:06:56;;;;;;;;;;;26.50;99.90;;;;;;5157178;27;20347;-73
2022/09/30 14:09:39;;;;;;;;;;;26.50;99.90;;;;;;5157149;27;19903;-75
2022/09/30 14:12:18;;;;;;;;;;;26.50;99.90;;;;;;5158074;27;20263;-75
2022/09/30 14:15:05;;;;;;;;;;;26.50;99.90;;;;;;5157430;27;19941;-74
2022/09/30 14:17:36;;;;;;;;;;;26.40;99.90;;;;;;5113775;28;19994;-75
2022/09/30 14:20:02;;;;;;;;;;;26.40;99.90;;;;;;5114307;28;19903;-75
2022/09/30 14:22:31;;;;;;;;;;;26.40;99.90;;;;;;5096721;28;19910;-74
2022/09/30 14:24:58;;;;;;;;;;;26.40;99.90;;;;;;5114136;28;19910;-76
2022/09/30 14:27:53;;;;;;;;;;;26.30;99.90;;;;;;5113636;28;19927;-75
2022/09/30 14:30:20;;;;;;;;;;;26.30;99.90;;;;;;5087326;28;19903;-76
2022/09/30 14:32:57;;;;;;;;;;;26.50;99.90;;;;;;5113826;28;19922;-75
2022/09/30 14:35:27;;;;;;;;;;;26.50;99.90;;;;;;5114128;28;20294;-75
2022/09/30 14:37:52;;;;;;;;;;;26.50;99.90;;;;;;5113494;28;19903;-75
2022/09/30 14:40:22;;;;;;;;;;;26.60;99.90;;;;;;5113724;28;19908;-74
2022/09/30 14:42:48;;;;;;;;;;;26.60;99.90;;;;;;5113305;28;20212;-76
2022/09/30 14:45:25;;;;;;;;;;;26.80;99.90;;;;;;5113520;28;19903;-75
2022/09/30 14:47:52;;;;;;;;;;;26.80;99.90;;;;;;5096431;28;19911;-75
2022/09/30 14:50:32;;;;;;;;;;;26.90;99.90;;;;;;5113595;28;19910;-76
2022/09/30 14:52:59;;;;;;;;;;;26.70;99.90;;;;;;5113304;28;19931;-76